createdAt,value
2019-05-23T00:01:00.627Z,101752.18
2019-05-23T00:03:33.322Z,101752.71
2019-05-23T00:06:08.927Z,101753.56
2019-05-23T00:08:37.916Z,101754.94
2019-05-23T00:11:29.387Z,101751.33
2019-05-23T00:13:57.684Z,101754.09
2019-05-23T00:16:27.720Z,101745.04
2019-05-23T00:18:57.310Z,101750.35
2019-05-23T00:21:26.034Z,101754.94
2019-05-23T00:23:54.859Z,101750.97
2019-05-23T00:26:23.627Z,101751.20
2019-05-23T00:29:08.761Z,101746.53
2019-05-23T00:31:26.357Z,101745.92
2019-05-23T00:33:54.920Z,101743.17
2019-05-23T00:36:24.619Z,101746.53
2019-05-23T00:38:52.942Z,101737.70
2019-05-23T00:41:23.785Z,101742.08
2019-05-23T00:43:52.754Z,101739.84
2019-05-23T00:46:21.377Z,101736.80
2019-05-23T00:48:51.059Z,101736.72
2019-05-23T00:51:21.484Z,101738.42
2019-05-23T00:53:50.908Z,101741.70
2019-05-23T00:56:20.410Z,101738.63
2019-05-23T00:58:49.385Z,101738.02
2019-05-23T01:01:18.533Z,101737.73
2019-05-23T01:03:47.186Z,101743.54
2019-05-23T01:06:15.828Z,101745.16
2019-05-23T01:08:44.569Z,101747.59
2019-05-23T01:11:13.179Z,101751.13
2019-05-23T01:13:41.584Z,101742.19
2019-05-23T01:16:10.641Z,101746.86
2019-05-23T01:18:39.020Z,101745.16
2019-05-23T01:21:11.310Z,101741.58
2019-05-23T01:23:50.071Z,101742.55
2019-05-23T01:26:19.267Z,101742.80
2019-05-23T01:28:48.060Z,101741.05
2019-05-23T01:31:23.674Z,101738.97
2019-05-23T01:33:53.091Z,101735.84
2019-05-23T01:36:21.493Z,101745.17
2019-05-23T01:38:49.732Z,101745.70
2019-05-23T01:41:17.941Z,101739.90
2019-05-23T01:47:16.507Z,101736.77
2019-05-23T01:49:44.735Z,101736.60
2019-05-23T01:52:13.419Z,101736.28
2019-05-23T01:54:42.388Z,101737.61
2019-05-23T01:57:10.680Z,101732.91
2019-05-23T01:59:38.999Z,101732.86
2019-05-23T02:02:07.659Z,101733.39
2019-05-23T02:04:36.085Z,101738.05
2019-05-23T02:07:05.028Z,101731.69
2019-05-23T02:09:33.245Z,101719.67
2019-05-23T02:12:01.721Z,101723.41
2019-05-23T02:14:30.109Z,101729.17
2019-05-23T02:16:58.337Z,101723.36
2019-05-23T02:19:26.587Z,101720.52
2019-05-23T02:21:55.767Z,101725.80
2019-05-23T02:24:24.254Z,101721.14
2019-05-23T02:26:52.501Z,101726.65
2019-05-23T02:29:20.805Z,101720.20
2019-05-23T02:31:49.658Z,101718.82
2019-05-23T02:34:18.852Z,101713.02
2019-05-23T02:36:48.414Z,101712.09
2019-05-23T02:39:18.365Z,101708.48
2019-05-23T02:42:04.305Z,101707.02
2019-05-23T02:44:34.164Z,101700.56
2019-05-23T02:47:04.026Z,101704.41
2019-05-23T02:49:34.534Z,101701.86
2019-05-23T02:52:34.693Z,101704.33
2019-05-23T02:55:03.576Z,101704.33
2019-05-23T02:57:32.554Z,101704.85
2019-05-23T03:00:27.051Z,101700.11
2019-05-23T03:02:59.779Z,101705.38
2019-05-23T03:05:28.332Z,101699.88
2019-05-23T03:07:56.819Z,101699.88
2019-05-23T03:10:27.487Z,101705.94
2019-05-23T03:12:58.088Z,101699.05
2019-05-23T03:15:27.375Z,101703.23
2019-05-23T03:17:55.744Z,101705.23
2019-05-23T03:20:23.995Z,101697.05
2019-05-23T03:23:08.654Z,101700.41
2019-05-23T03:25:40.703Z,101699.16
2019-05-23T03:28:09.806Z,101701.75
2019-05-23T03:31:25.258Z,101699.38
2019-05-23T03:33:28.585Z,101697.06
2019-05-23T03:35:59.834Z,101691.95
2019-05-23T03:38:28.206Z,101701.20
2019-05-23T03:40:56.420Z,101696.47
2019-05-23T03:43:25.677Z,101695.38
2019-05-23T03:45:56.602Z,101689.91
2019-05-23T03:48:24.810Z,101689.63
2019-05-23T03:50:54.756Z,101699.56
2019-05-23T03:53:25.588Z,101691.55
2019-05-23T03:55:53.994Z,101697.59
2019-05-23T03:58:23.005Z,101698.42
2019-05-23T04:00:53.261Z,101697.16
2019-05-23T04:03:22.427Z,101691.20
2019-05-23T04:05:51.080Z,101695.55
2019-05-23T04:08:20.961Z,101694.54
2019-05-23T04:10:51.812Z,101699.73
2019-05-23T04:13:19.679Z,101699.35
2019-05-23T04:15:50.772Z,101690.33
2019-05-23T04:18:18.996Z,101699.02
2019-05-23T04:20:47.243Z,101702.80
2019-05-23T04:23:16.753Z,101704.43
2019-05-23T04:25:45.055Z,101706.27
2019-05-23T04:28:13.290Z,101710.23
2019-05-23T04:30:41.514Z,101713.52
2019-05-23T04:33:09.914Z,101521.55
2019-05-23T04:35:38.345Z,101707.78
2019-05-23T04:38:07.142Z,101712.80
2019-05-23T04:40:35.638Z,101708.52
2019-05-23T04:43:03.905Z,101710.63
2019-05-23T04:45:33.656Z,101716.31
2019-05-23T04:48:01.918Z,101707.46
2019-05-23T04:50:30.808Z,101708.31
2019-05-23T04:52:59.629Z,101710.41
2019-05-23T04:55:28.625Z,101712.44
2019-05-23T04:57:57.626Z,101719.97
2019-05-23T05:00:25.848Z,101718.36
2019-05-23T05:02:54.647Z,101713.62
2019-05-23T05:05:23.399Z,101717.91
2019-05-23T05:07:51.685Z,101719.98
2019-05-23T05:10:22.243Z,101721.16
2019-05-23T05:12:50.725Z,101734.55
2019-05-23T05:15:19.834Z,101734.84
2019-05-23T05:17:48.420Z,101728.44
2019-05-23T05:20:16.758Z,101750.20
2019-05-23T05:22:45.744Z,101738.17
2019-05-23T05:25:14.055Z,101742.60
2019-05-23T05:27:42.308Z,101744.86
2019-05-23T05:30:10.554Z,101605.03
2019-05-23T05:32:44.742Z,101750.98
2019-05-23T05:35:09.425Z,101754.69
2019-05-23T05:37:37.798Z,101757.03
2019-05-23T05:40:06.624Z,101751.94
2019-05-23T05:42:35.955Z,101757.75
2019-05-23T05:45:09.259Z,101758.16
2019-05-23T05:47:38.118Z,101756.72
2019-05-23T05:50:10.992Z,101756.68
2019-05-23T05:52:41.298Z,101752.60
2019-05-23T05:55:10.487Z,101757.59
2019-05-23T05:57:39.048Z,101756.23
2019-05-23T06:00:12.901Z,101771.05
2019-05-23T06:02:39.876Z,101762.69
2019-05-23T06:05:10.425Z,101759.97
2019-05-23T06:07:42.164Z,101762.95
2019-05-23T06:10:15.011Z,101763.08
2019-05-23T06:12:43.256Z,101764.63
2019-05-23T06:15:11.485Z,101763.89
2019-05-23T06:17:39.695Z,101768.67
2019-05-23T06:20:08.209Z,101770.17
2019-05-23T06:22:37.119Z,101769.40
2019-05-23T06:25:07.111Z,101766.90
2019-05-23T06:27:35.694Z,101767.75
2019-05-23T06:30:08.164Z,101771.66
2019-05-23T06:32:36.806Z,101773.34
2019-05-23T06:35:06.825Z,101772.18
2019-05-23T06:37:35.811Z,101769.33
2019-05-23T06:40:09.197Z,101776.88
2019-05-23T06:42:36.762Z,101777.00
2019-05-23T06:45:07.587Z,101770.31
2019-05-23T06:47:35.973Z,101771.14
2019-05-23T06:50:06.677Z,101777.23
2019-05-23T06:52:34.868Z,101780.50
2019-05-23T06:55:03.090Z,101769.22
2019-05-23T06:57:31.308Z,101766.41
2019-05-23T06:59:59.806Z,101767.72
2019-05-23T07:02:31.825Z,101764.32
2019-05-23T07:04:58.083Z,101765.15
2019-05-23T07:07:26.473Z,101766.23
2019-05-23T07:09:54.690Z,101772.89
2019-05-23T07:12:22.943Z,101772.89
2019-05-23T07:14:51.157Z,101771.03
2019-05-23T07:17:20.557Z,101769.28
2019-05-23T07:19:48.776Z,101772.28
2019-05-23T07:22:18.943Z,101771.73
2019-05-23T07:24:57.561Z,101775.37
2019-05-23T07:27:17.292Z,101772.70
2019-05-23T07:29:45.523Z,101774.23
2019-05-23T07:32:14.065Z,101771.34
2019-05-23T07:34:42.291Z,101771.36
2019-05-23T07:37:10.533Z,101773.03
2019-05-23T07:39:38.835Z,101773.17
2019-05-23T07:42:08.098Z,101771.27
2019-05-23T07:44:48.021Z,101768.03
2019-05-23T07:47:08.676Z,101773.51
2019-05-23T07:49:36.926Z,101772.39
2019-05-23T07:52:05.292Z,101768.52
2019-05-23T07:54:35.725Z,101773.30
2019-05-23T07:57:05.575Z,101766.95
2019-05-23T07:59:34.188Z,101763.95
2019-05-23T08:02:10.141Z,101763.91
2019-05-23T08:04:38.818Z,101766.58
2019-05-23T08:07:07.399Z,101761.91
2019-05-23T08:09:35.616Z,101755.37
2019-05-23T08:12:04.096Z,101765.42
2019-05-23T08:14:32.330Z,101764.16
2019-05-23T08:17:00.545Z,101765.25
2019-05-23T08:19:28.797Z,101767.19
2019-05-23T08:21:57.038Z,101764.82
2019-05-23T08:24:25.262Z,101765.91
2019-05-23T08:26:54.735Z,101766.94
2019-05-23T08:29:26.059Z,101766.13
2019-05-23T08:31:52.918Z,101611.66
2019-05-23T08:34:39.591Z,101758.52
2019-05-23T08:36:51.447Z,101758.77
2019-05-23T08:39:20.173Z,101759.58
2019-05-23T08:41:48.859Z,101759.14
2019-05-23T08:44:17.252Z,101758.65
2019-05-23T08:46:45.670Z,101757.21
2019-05-23T08:49:14.136Z,101755.64
2019-05-23T08:51:42.364Z,101755.02
2019-05-23T08:54:10.845Z,101751.68
2019-05-23T08:56:39.176Z,101759.72
2019-05-23T08:59:09.022Z,101751.41
2019-05-23T09:01:37.264Z,101756.85
2019-05-23T09:04:06.912Z,101752.84
2019-05-23T09:06:35.206Z,101616.58
2019-05-23T09:09:27.552Z,101750.26
2019-05-23T09:11:35.901Z,101748.83
2019-05-23T09:14:04.929Z,101746.42
2019-05-23T09:16:33.391Z,101753.33
2019-05-23T09:19:01.736Z,101753.28
2019-05-23T09:21:30.258Z,101748.37
2019-05-23T09:23:58.459Z,101741.87
2019-05-23T09:26:27.134Z,101741.87
2019-05-23T09:28:55.368Z,101742.23
2019-05-23T09:31:24.579Z,101742.38
2019-05-23T09:33:52.816Z,101737.98
2019-05-23T09:36:21.027Z,101740.05
2019-05-23T09:38:49.312Z,101740.33
2019-05-23T09:41:17.553Z,101742.63
2019-05-23T09:43:45.764Z,101739.21
2019-05-23T09:46:14.023Z,101741.52
2019-05-23T09:48:42.532Z,101733.86
2019-05-23T09:51:10.738Z,101741.55
2019-05-23T09:53:39.082Z,101732.08
2019-05-23T09:56:07.300Z,101736.87
2019-05-23T09:58:35.546Z,101730.67
2019-05-23T10:01:04.155Z,101735.78
2019-05-23T10:03:32.380Z,101732.64
2019-05-23T10:06:00.605Z,101725.42
2019-05-23T10:08:28.856Z,101728.41
2019-05-23T10:10:57.073Z,101720.16
2019-05-23T10:13:38.291Z,101727.50
2019-05-23T10:16:00.217Z,101728.25
2019-05-23T10:18:28.789Z,101723.45
2019-05-23T10:20:57.054Z,101725.25
2019-05-23T10:23:25.455Z,101727.80
2019-05-23T10:25:53.717Z,101726.34
2019-05-23T10:28:21.988Z,101723.44
2019-05-23T10:30:50.201Z,101721.70
2019-05-23T10:33:18.450Z,101717.34
2019-05-23T10:35:59.973Z,101711.52
2019-05-23T10:38:17.523Z,101712.41
2019-05-23T10:40:45.753Z,101715.09
2019-05-23T10:43:13.978Z,101709.80
2019-05-23T10:45:42.203Z,101702.97
2019-05-23T10:48:12.025Z,101711.55
2019-05-23T10:50:44.874Z,101702.91
2019-05-23T10:53:10.191Z,101705.84
2019-05-23T10:55:38.494Z,101702.22
2019-05-23T10:58:06.727Z,101694.80
2019-05-23T11:00:35.916Z,101696.88
2019-05-23T11:03:05.446Z,101680.78
2019-05-23T11:05:33.644Z,101697.63
2019-05-23T11:08:02.736Z,101694.70
2019-05-23T11:10:31.018Z,101694.16
2019-05-23T11:12:59.270Z,101688.84
2019-05-23T11:15:27.489Z,101691.63
2019-05-23T11:17:56.238Z,101691.95
2019-05-23T11:20:24.438Z,101688.97
2019-05-23T11:22:52.664Z,101685.64
2019-05-23T11:25:22.522Z,101684.34
2019-05-23T11:27:50.747Z,101681.81
2019-05-23T11:30:23.090Z,101682.23
2019-05-23T11:32:51.316Z,101674.33
2019-05-23T11:35:19.542Z,101668.61
2019-05-23T11:37:47.766Z,101675.36
2019-05-23T11:40:16.102Z,101670.65
2019-05-23T11:42:44.327Z,101675.27
2019-05-23T11:45:12.903Z,101663.89
2019-05-23T11:47:41.561Z,101665.06
2019-05-23T11:50:09.765Z,101664.70
2019-05-23T11:52:38.094Z,101656.80
2019-05-23T11:55:07.074Z,101659.85
2019-05-23T11:57:37.769Z,101654.58
2019-05-23T12:00:10.091Z,101667.17
2019-05-23T12:02:42.844Z,101660.37
2019-05-23T12:05:12.967Z,101656.82
2019-05-23T12:07:41.459Z,101655.85
2019-05-23T12:10:10.602Z,101654.11
2019-05-23T12:12:38.835Z,101656.70
2019-05-23T12:15:09.567Z,101653.74
2019-05-23T12:17:37.868Z,101650.48
2019-05-23T12:20:07.135Z,101643.37
2019-05-23T12:22:35.952Z,101642.22
2019-05-23T12:25:21.059Z,101640.77
2019-05-23T12:27:36.625Z,101640.52
2019-05-23T12:30:07.447Z,101638.70
2019-05-23T12:32:35.674Z,101638.72
2019-05-23T12:35:10.884Z,101633.98
2019-05-23T12:37:36.026Z,101640.20
2019-05-23T12:40:06.310Z,101630.89
2019-05-23T12:42:34.570Z,101633.98
2019-05-23T12:45:03.594Z,101626.52
2019-05-23T12:47:45.772Z,101494.06
2019-05-23T12:50:18.264Z,101615.66
2019-05-23T12:52:46.521Z,101609.67
2019-05-23T12:55:14.761Z,101613.56
2019-05-23T12:57:42.960Z,101608.91
2019-05-23T13:00:15.383Z,101603.61
2019-05-23T13:02:43.591Z,101395.84
2019-05-23T13:05:12.319Z,101603.80
2019-05-23T13:07:40.494Z,101608.95
2019-05-23T13:10:08.729Z,101604.71
2019-05-23T13:12:37.135Z,101594.41
2019-05-23T13:15:08.635Z,101586.82
2019-05-23T13:17:36.906Z,101595.47
2019-05-23T13:20:08.020Z,101592.47
2019-05-23T13:22:36.568Z,101592.05
2019-05-23T13:25:06.410Z,101593.06
2019-05-23T13:27:34.997Z,101597.13
2019-05-23T13:30:04.359Z,101592.55
2019-05-23T13:32:32.884Z,101592.38
2019-05-23T13:35:01.121Z,101595.53
2019-05-23T13:37:29.411Z,101585.66
2019-05-23T13:39:57.660Z,101589.47
2019-05-23T13:42:26.698Z,101587.16
2019-05-23T13:44:55.078Z,101582.50
2019-05-23T13:47:23.295Z,101579.52
2019-05-23T13:49:51.526Z,101577.38
2019-05-23T13:52:19.763Z,101578.61
2019-05-23T13:54:48.024Z,101577.94
2019-05-23T13:57:16.461Z,101572.30
2019-05-23T13:59:44.724Z,101575.38
2019-05-23T14:02:12.966Z,101571.98
2019-05-23T14:04:41.176Z,101563.44
2019-05-23T14:07:10.129Z,101566.26
2019-05-23T14:09:38.736Z,101567.51
2019-05-23T14:12:20.797Z,101571.81
2019-05-23T14:14:36.911Z,101564.08
2019-05-23T14:17:15.681Z,101563.25
2019-05-23T14:19:44.182Z,101563.75
2019-05-23T14:22:12.402Z,101563.75
2019-05-23T14:24:40.641Z,101558.59
2019-05-23T14:27:22.567Z,101564.01
2019-05-23T14:29:50.809Z,101555.96
2019-05-23T14:32:20.662Z,101550.81
2019-05-23T14:34:49.050Z,101548.32
2019-05-23T14:37:18.929Z,101540.84
2019-05-23T14:39:47.905Z,101547.67
2019-05-23T14:42:33.187Z,101546.73
2019-05-23T14:45:01.417Z,101548.06
2019-05-23T14:47:47.958Z,101537.69
2019-05-23T14:50:34.407Z,101541.16
2019-05-23T14:53:04.344Z,101544.35
2019-05-23T14:55:33.058Z,101533.62
2019-05-23T14:58:01.682Z,101528.87
2019-05-23T15:00:30.175Z,101531.19
2019-05-23T15:02:58.450Z,101524.43
2019-05-23T15:05:26.877Z,101533.54
2019-05-23T15:07:55.104Z,101523.34
2019-05-23T15:10:23.397Z,101524.34
2019-05-23T15:12:51.608Z,101524.84
2019-05-23T15:15:20.098Z,101525.41
2019-05-23T15:17:48.329Z,101526.48
2019-05-23T15:20:16.758Z,101523.94
2019-05-23T15:22:44.982Z,101523.38
2019-05-23T15:25:13.173Z,101516.55
2019-05-23T15:27:41.410Z,101512.58
2019-05-23T15:30:09.619Z,101513.28
2019-05-23T15:32:37.884Z,101504.12
2019-05-23T15:35:06.102Z,101507.22
2019-05-23T15:37:34.317Z,101498.91
2019-05-23T15:40:02.545Z,101497.34
2019-05-23T15:42:30.782Z,101493.23
2019-05-23T15:44:59.040Z,101484.08
2019-05-23T15:47:28.863Z,101216.30
2019-05-23T15:49:58.741Z,101486.41
2019-05-23T15:52:44.691Z,101499.52
2019-05-23T15:55:30.589Z,101498.77
2019-05-23T15:58:00.476Z,101488.80
2019-05-23T16:00:42.033Z,101482.59
2019-05-23T16:03:31.274Z,101481.45
2019-05-23T16:05:58.347Z,101482.94
2019-05-23T16:08:26.631Z,101480.61
2019-05-23T16:10:54.985Z,101471.64
2019-05-23T16:13:23.488Z,101471.00
2019-05-23T16:15:51.710Z,101469.97
2019-05-23T16:18:20.333Z,101465.92
2019-05-23T16:20:48.523Z,101458.61
2019-05-23T16:23:16.765Z,101456.36
2019-05-23T16:25:45.016Z,101460.86
2019-05-23T16:28:13.258Z,101455.38
2019-05-23T16:30:41.502Z,101456.89
2019-05-23T16:33:09.775Z,101453.99
2019-05-23T16:35:38.065Z,101454.17
2019-05-23T16:38:06.349Z,101452.03
2019-05-23T16:40:34.553Z,101446.64
2019-05-23T16:43:02.778Z,101449.75
2019-05-23T16:45:31.189Z,101451.38
2019-05-23T16:47:59.407Z,101441.09
2019-05-23T16:50:27.640Z,101447.50
2019-05-23T16:52:55.884Z,101434.49
2019-05-23T16:55:41.896Z,101447.23
2019-05-23T16:58:11.779Z,101446.42
2019-05-23T17:00:47.624Z,101440.28
2019-05-23T17:03:17.497Z,101441.42
2019-05-23T17:05:53.316Z,101447.63
2019-05-23T17:08:23.181Z,101437.03
2019-05-23T17:10:53.055Z,101439.58
2019-05-23T17:13:29.276Z,101436.02
2019-05-23T17:16:05.280Z,101433.54
2019-05-23T17:18:40.912Z,101431.86
2019-05-23T17:21:10.778Z,101428.55
2019-05-23T17:23:43.331Z,101426.36
2019-05-23T17:26:13.187Z,101430.75
2019-05-23T17:28:48.979Z,101427.25
2019-05-23T17:31:18.951Z,101421.98
2019-05-23T17:33:47.178Z,101421.88
2019-05-23T17:36:15.400Z,101429.30
2019-05-23T17:38:43.677Z,101412.07
2019-05-23T17:41:11.928Z,101415.67
2019-05-23T17:43:40.307Z,101420.01
2019-05-23T17:46:08.537Z,101420.19
2019-05-23T17:48:36.757Z,101420.13
2019-05-23T17:51:04.994Z,101417.81
2019-05-23T17:53:33.208Z,101407.01
2019-05-23T17:56:01.818Z,101403.51
2019-05-23T17:58:30.308Z,101405.05
2019-05-23T18:00:59.082Z,101405.79
2019-05-23T18:03:28.278Z,101402.34
2019-05-23T18:05:56.970Z,101396.91
2019-05-23T18:08:25.546Z,101404.94
2019-05-23T18:10:54.324Z,101406.16
2019-05-23T18:13:23.238Z,101395.91
2019-05-23T18:15:51.818Z,101394.66
2019-05-23T18:18:20.533Z,101394.58
2019-05-23T18:20:49.495Z,101393.35
2019-05-23T18:23:17.710Z,101386.23
2019-05-23T18:25:46.241Z,101383.61
2019-05-23T18:28:14.458Z,101383.75
2019-05-23T18:30:50.047Z,101390.42
2019-05-23T18:33:18.965Z,101394.20
2019-05-23T18:35:48.173Z,101391.29
2019-05-23T18:38:16.754Z,101382.20
2019-05-23T18:41:00.008Z,101383.17
2019-05-23T18:43:15.382Z,101388.03
2019-05-23T18:45:44.782Z,101378.12
2019-05-23T18:48:13.086Z,101376.28
2019-05-23T18:50:41.341Z,101378.65
2019-05-23T18:53:09.923Z,101374.28
2019-05-23T18:55:38.990Z,101378.88
2019-05-23T18:58:07.695Z,101378.19
2019-05-23T19:00:54.261Z,101271.00
2019-05-23T19:03:23.021Z,101380.97
2019-05-23T19:05:51.774Z,101380.52
2019-05-23T19:08:21.118Z,101375.89
2019-05-23T19:10:49.702Z,101379.64
2019-05-23T19:13:17.951Z,101382.79
2019-05-23T19:15:46.189Z,101377.84
2019-05-23T19:18:14.898Z,101376.52
2019-05-23T19:20:43.145Z,101375.21
2019-05-23T19:23:11.968Z,101376.61
2019-05-23T19:25:40.212Z,101382.18
2019-05-23T19:28:08.983Z,101384.36
2019-05-23T19:30:37.606Z,101345.51
2019-05-23T19:33:07.283Z,101375.21
2019-05-23T19:35:37.340Z,101374.93
2019-05-23T19:38:06.511Z,101378.54
2019-05-23T19:40:35.948Z,101376.86
2019-05-23T19:43:04.552Z,101376.61
2019-05-23T19:45:32.958Z,101379.41
2019-05-23T19:48:01.228Z,101373.59
2019-05-23T19:50:29.620Z,101371.17
2019-05-23T19:52:57.877Z,101372.11
2019-05-23T19:55:26.692Z,101371.36
2019-05-23T19:57:55.592Z,101374.77
2019-05-23T20:00:25.431Z,101370.14
2019-05-23T20:02:55.582Z,101368.45
2019-05-23T20:05:34.491Z,101369.95
2019-05-23T20:08:02.787Z,101366.09
2019-05-23T20:10:31.499Z,101369.22
2019-05-23T20:12:59.730Z,101362.28
2019-05-23T20:15:28.153Z,101361.16
2019-05-23T20:17:56.402Z,101360.16
2019-05-23T20:20:25.110Z,101356.41
2019-05-23T20:22:53.343Z,101363.77
2019-05-23T20:25:21.619Z,101365.34
2019-05-23T20:27:49.847Z,101371.64
2019-05-23T20:30:43.062Z,101363.88
2019-05-23T20:33:11.295Z,101335.39
2019-05-23T20:35:39.510Z,101367.71
2019-05-23T20:38:07.756Z,101369.75
2019-05-23T20:40:36.060Z,101366.15
2019-05-23T20:43:04.537Z,101360.62
2019-05-23T20:45:33.389Z,101364.87
2019-05-23T20:48:01.643Z,101359.36
2019-05-23T20:50:29.876Z,101358.00
2019-05-23T20:52:58.260Z,101359.41
2019-05-23T20:55:26.476Z,101354.09
2019-05-23T20:57:54.715Z,101348.56
2019-05-23T21:00:33.590Z,101187.45
2019-05-23T21:03:02.407Z,101352.23
2019-05-23T21:05:30.652Z,101350.30
2019-05-23T21:07:58.870Z,101345.27
2019-05-23T21:10:45.458Z,101344.48
2019-05-23T21:13:13.678Z,101347.30
2019-05-23T21:15:41.892Z,101358.22
2019-05-23T21:18:10.145Z,101344.27
2019-05-23T21:20:38.418Z,101339.02
2019-05-23T21:23:06.662Z,101341.30
2019-05-23T21:25:36.635Z,101343.02
2019-05-23T21:28:04.860Z,101341.89
2019-05-23T21:30:33.090Z,101337.16
2019-05-23T21:33:03.186Z,101338.02
2019-05-23T21:35:31.892Z,101335.27
2019-05-23T21:38:00.166Z,101332.50
2019-05-23T21:40:37.899Z,101335.29
2019-05-23T21:43:06.122Z,101331.16
2019-05-23T21:45:34.401Z,101328.93
2019-05-23T21:48:02.698Z,101326.69
2019-05-23T21:50:31.277Z,101333.42
2019-05-23T21:52:59.596Z,101328.98
2019-05-23T21:55:40.111Z,101330.14
2019-05-23T21:58:08.863Z,101339.91
2019-05-23T22:01:06.191Z,101339.11
2019-05-23T22:03:52.762Z,101336.08
2019-05-23T22:06:34.632Z,101328.02
2019-05-23T22:09:04.476Z,101327.43
2019-05-23T22:11:32.683Z,101327.98
2019-05-23T22:14:00.917Z,101333.86
2019-05-23T22:16:29.171Z,101338.63
2019-05-23T22:18:57.507Z,101344.51
2019-05-23T22:21:25.938Z,101343.95
2019-05-23T22:23:54.225Z,101349.53
2019-05-23T22:26:22.622Z,101354.85
2019-05-23T22:28:50.895Z,101349.86
2019-05-23T22:31:19.962Z,101339.55
2019-05-23T22:33:49.829Z,101339.01
2019-05-23T22:36:18.713Z,101349.34
2019-05-23T22:38:47.107Z,101339.30
2019-05-23T22:41:15.396Z,101344.87
2019-05-23T22:43:43.638Z,101337.93
2019-05-23T22:46:11.848Z,101336.25
2019-05-23T22:48:40.061Z,101335.98
2019-05-23T22:51:08.283Z,101339.05
2019-05-23T22:53:36.513Z,101334.33
2019-05-23T22:56:05.009Z,101329.59
2019-05-23T22:58:33.251Z,101328.48
2019-05-23T23:01:01.533Z,101327.64
2019-05-23T23:03:29.761Z,101327.11
2019-05-23T23:05:57.977Z,101332.97
2019-05-23T23:08:27.480Z,101332.95
2019-05-23T23:10:55.743Z,101331.30
2019-05-23T23:13:37.725Z,101330.19
2019-05-23T23:15:54.565Z,101328.53
2019-05-23T23:18:22.825Z,101324.05
2019-05-23T23:20:51.042Z,101327.64
2019-05-23T23:23:19.320Z,101324.03
2019-05-23T23:25:47.545Z,101326.52
2019-05-23T23:28:15.777Z,101318.75
2019-05-23T23:30:45.635Z,101324.02
2019-05-23T23:33:13.877Z,101325.41
2019-05-23T23:35:42.105Z,101323.20
2019-05-23T23:38:10.585Z,101317.63
2019-05-23T23:40:38.812Z,101321.25
2019-05-23T23:43:07.045Z,101323.47
2019-05-23T23:45:53.073Z,101322.37
2019-05-23T23:48:39.322Z,101312.33
2019-05-23T23:51:25.111Z,101314.30
2019-05-23T23:54:11.020Z,101312.05
2019-05-23T23:56:57.303Z,101313.99
2019-05-23T23:59:24.761Z,101315.67
